createdAt,value
2022-12-18T00:00:31.157Z,57.88
2022-12-18T00:02:59.832Z,56.15
2022-12-18T00:05:31.036Z,56.15
2022-12-18T00:08:01.076Z,56.13
2022-12-18T00:10:30.864Z,57.08
2022-12-18T00:13:00.720Z,55.47
2022-12-18T00:15:31.065Z,57.50
2022-12-18T00:18:01.962Z,55.90
2022-12-18T00:20:33.370Z,55.40
2022-12-18T00:23:03.328Z,55.57
2022-12-18T00:25:31.993Z,55.33
2022-12-18T00:28:00.503Z,54.03
2022-12-18T00:30:29.424Z,55.17
2022-12-18T00:32:58.097Z,55.22
2022-12-18T00:35:28.145Z,54.78
2022-12-18T00:37:59.108Z,54.92
2022-12-18T00:40:29.192Z,54.38
2022-12-18T00:42:56.718Z,53.65
2022-12-18T00:45:25.832Z,54.67
2022-12-18T00:47:54.755Z,56.40
2022-12-18T00:50:27.152Z,54.95
2022-12-18T00:52:58.053Z,54.67
2022-12-18T00:55:28.118Z,55.83
2022-12-18T00:57:58.953Z,53.93
2022-12-18T01:00:27.550Z,55.10
2022-12-18T01:02:56.082Z,53.92
2022-12-18T01:05:24.799Z,53.55
2022-12-18T01:07:53.467Z,54.57
2022-12-18T01:10:22.424Z,53.83
2022-12-18T01:12:53.135Z,53.35
2022-12-18T01:15:22.102Z,54.30
2022-12-18T01:17:50.787Z,53.50
2022-12-18T01:20:19.473Z,54.08
2022-12-18T01:22:48.188Z,53.45
2022-12-18T01:25:16.975Z,53.00
2022-12-18T01:27:45.789Z,53.83
2022-12-18T01:30:16.407Z,54.08
2022-12-18T01:32:45.077Z,52.83
2022-12-18T01:35:13.626Z,53.88
2022-12-18T01:37:42.299Z,52.95
2022-12-18T01:40:13.854Z,52.70
2022-12-18T01:42:42.467Z,52.53
2022-12-18T01:45:28.864Z,52.65
2022-12-18T01:48:00.887Z,53.17
2022-12-18T01:50:34.784Z,52.93
2022-12-18T01:53:09.593Z,53.58
2022-12-18T01:55:44.612Z,52.97
2022-12-18T01:58:13.408Z,52.75
2022-12-18T02:00:43.998Z,52.75
2022-12-18T02:03:14.237Z,52.67
2022-12-18T02:05:51.648Z,52.28
2022-12-18T02:08:28.278Z,52.88
2022-12-18T02:11:07.194Z,52.10
2022-12-18T02:13:45.258Z,51.80
2022-12-18T02:16:24.869Z,51.67
2022-12-18T02:18:59.829Z,52.53
2022-12-18T02:21:39.031Z,53.07
2022-12-18T02:24:26.443Z,51.17
2022-12-18T02:27:00.056Z,52.42
2022-12-18T02:29:35.019Z,51.13
2022-12-18T02:32:06.834Z,51.78
2022-12-18T02:34:40.030Z,51.60
2022-12-18T02:37:13.040Z,52.03
2022-12-18T02:39:45.116Z,51.15
2022-12-18T02:42:15.670Z,50.70
2022-12-18T02:44:49.561Z,50.30
2022-12-18T02:47:22.378Z,50.20
2022-12-18T02:50:00.190Z,50.80
2022-12-18T02:52:37.616Z,50.70
2022-12-18T02:55:21.276Z,51.42
2022-12-18T02:57:56.367Z,51.10
2022-12-18T03:00:31.023Z,49.60
2022-12-18T03:03:06.739Z,50.30
2022-12-18T03:05:41.571Z,49.80
2022-12-18T03:08:16.562Z,49.97
2022-12-18T03:10:49.655Z,49.03
2022-12-18T03:13:25.609Z,49.88
2022-12-18T03:15:57.642Z,49.33
2022-12-18T03:18:32.051Z,50.30
2022-12-18T03:21:06.903Z,49.45
2022-12-18T03:23:41.286Z,48.77
2022-12-18T03:26:14.978Z,48.90
2022-12-18T03:28:49.414Z,50.30
2022-12-18T03:31:19.890Z,50.03
2022-12-18T03:33:55.546Z,49.35
2022-12-18T03:36:24.747Z,48.88
2022-12-18T03:38:53.872Z,49.67
2022-12-18T03:41:32.066Z,50.15
2022-12-18T03:44:09.239Z,50.13
2022-12-18T03:46:47.692Z,50.35
2022-12-18T03:49:24.035Z,49.40
2022-12-18T03:51:59.122Z,49.38
2022-12-18T03:54:30.367Z,49.05
2022-12-18T03:57:05.886Z,48.63
2022-12-18T03:59:37.427Z,49.25
2022-12-18T04:02:09.117Z,49.28
2022-12-18T04:04:39.447Z,47.88
2022-12-18T04:07:08.815Z,47.87
2022-12-18T04:09:38.986Z,49.40
2022-12-18T04:12:07.855Z,49.03
2022-12-18T04:14:37.641Z,48.30
2022-12-18T04:17:06.215Z,47.72
2022-12-18T04:19:34.810Z,48.78
2022-12-18T04:22:03.198Z,48.53
2022-12-18T04:24:31.647Z,47.30
2022-12-18T04:27:00.145Z,48.15
2022-12-18T04:29:28.602Z,47.65
2022-12-18T04:31:58.444Z,47.23
2022-12-18T04:34:26.951Z,47.45
2022-12-18T04:36:55.769Z,48.08
2022-12-18T04:39:24.521Z,47.83
2022-12-18T04:41:53.531Z,46.92
2022-12-18T04:44:21.949Z,47.58
2022-12-18T04:46:50.457Z,47.78
2022-12-18T04:49:20.365Z,46.97
2022-12-18T04:51:48.870Z,47.58
2022-12-18T04:54:18.558Z,47.45
2022-12-18T04:56:46.950Z,47.38
2022-12-18T04:59:15.339Z,47.53
2022-12-18T05:01:44.026Z,47.70
2022-12-18T05:04:13.037Z,46.25
2022-12-18T05:06:43.157Z,46.97
2022-12-18T05:09:11.618Z,46.95
2022-12-18T05:11:40.174Z,47.58
2022-12-18T05:14:08.578Z,47.53
2022-12-18T05:16:36.973Z,47.22
2022-12-18T05:19:05.456Z,46.90
2022-12-18T05:21:33.870Z,46.47
2022-12-18T05:24:03.731Z,46.75
2022-12-18T05:26:32.225Z,48.00
2022-12-18T05:29:00.717Z,46.97
2022-12-18T05:31:29.233Z,46.05
2022-12-18T05:33:57.777Z,47.03
2022-12-18T05:36:26.388Z,47.22
2022-12-18T05:38:54.930Z,47.07
2022-12-18T05:41:24.898Z,46.83
2022-12-18T05:43:53.340Z,46.78
2022-12-18T05:46:21.840Z,47.55
2022-12-18T05:48:51.293Z,47.20
2022-12-18T05:51:22.381Z,47.80
2022-12-18T05:53:51.045Z,47.05
2022-12-18T05:56:23.387Z,47.03
2022-12-18T05:58:56.781Z,46.63
2022-12-18T06:01:28.493Z,46.97
2022-12-18T06:03:58.205Z,46.90
2022-12-18T06:06:29.581Z,46.05
2022-12-18T06:08:59.617Z,46.10
2022-12-18T06:11:29.066Z,47.13
2022-12-18T06:14:00.332Z,46.42
2022-12-18T06:16:30.740Z,46.10
2022-12-18T06:19:00.222Z,46.45
2022-12-18T06:21:29.322Z,46.67
2022-12-18T06:23:58.075Z,45.97
2022-12-18T06:26:28.592Z,46.88
2022-12-18T06:28:58.827Z,45.70
2022-12-18T06:31:28.123Z,46.67
2022-12-18T06:33:57.583Z,45.80
2022-12-18T06:36:26.073Z,46.47
2022-12-18T06:38:54.459Z,46.20
2022-12-18T06:41:24.044Z,46.17
2022-12-18T06:43:56.802Z,46.65
2022-12-18T06:46:28.301Z,46.08
2022-12-18T06:48:56.650Z,46.28
2022-12-18T06:51:26.380Z,46.85
2022-12-18T06:53:54.824Z,46.60
2022-12-18T06:56:23.305Z,46.47
2022-12-18T06:58:53.190Z,46.63
2022-12-18T07:01:21.801Z,46.65
2022-12-18T07:03:55.729Z,46.72
2022-12-18T07:06:26.401Z,46.53
2022-12-18T07:08:56.479Z,47.38
2022-12-18T07:11:25.563Z,46.15
2022-12-18T07:13:55.416Z,46.13
2022-12-18T07:16:25.851Z,45.88
2022-12-18T07:18:57.835Z,46.35
2022-12-18T07:21:27.270Z,46.20
2022-12-18T07:23:55.783Z,45.83
2022-12-18T07:26:24.773Z,46.42
2022-12-18T07:28:58.436Z,47.88
2022-12-18T07:31:27.854Z,47.80
2022-12-18T07:33:57.676Z,45.53
2022-12-18T07:36:26.157Z,45.10
2022-12-18T07:38:54.743Z,45.63
2022-12-18T07:41:23.821Z,47.03
2022-12-18T07:43:52.298Z,45.95
2022-12-18T07:46:21.056Z,46.03
2022-12-18T07:48:50.325Z,46.72
2022-12-18T07:51:21.292Z,46.70
2022-12-18T07:53:52.325Z,48.03
2022-12-18T07:56:30.316Z,47.08
2022-12-18T07:59:00.792Z,46.05
2022-12-18T08:01:29.673Z,46.10
2022-12-18T08:03:59.160Z,46.78
2022-12-18T08:06:28.990Z,46.53
2022-12-18T08:08:58.453Z,47.70
2022-12-18T08:11:29.084Z,47.40
2022-12-18T08:13:58.105Z,47.47
2022-12-18T08:16:26.820Z,48.22
2022-12-18T08:18:55.947Z,47.13
2022-12-18T08:21:26.371Z,47.55
2022-12-18T08:23:59.087Z,49.22
2022-12-18T08:26:30.509Z,47.30
2022-12-18T08:29:01.653Z,47.40
2022-12-18T08:31:32.217Z,47.58
2022-12-18T08:34:00.857Z,48.05
2022-12-18T08:36:29.341Z,48.00
2022-12-18T08:38:59.784Z,48.27
2022-12-18T08:41:29.473Z,48.17
2022-12-18T08:44:15.820Z,47.60
2022-12-18T08:46:46.058Z,48.63
2022-12-18T08:49:14.990Z,49.33
2022-12-18T08:51:43.437Z,48.42
2022-12-18T08:54:15.097Z,49.17
2022-12-18T08:56:43.626Z,49.00
2022-12-18T08:59:18.819Z,48.28
2022-12-18T09:01:48.956Z,48.92
2022-12-18T09:04:17.917Z,48.97
2022-12-18T09:06:46.353Z,49.08
2022-12-18T09:09:16.329Z,49.53
2022-12-18T09:11:44.844Z,49.80
2022-12-18T09:14:13.429Z,48.95
2022-12-18T09:16:41.921Z,50.85
2022-12-18T09:19:11.588Z,49.83
2022-12-18T09:21:46.112Z,49.78
2022-12-18T09:24:18.957Z,50.30
2022-12-18T09:26:47.810Z,49.53
2022-12-18T09:29:19.021Z,50.42
2022-12-18T09:31:47.636Z,50.00
2022-12-18T09:34:16.123Z,51.50
2022-12-18T09:36:44.726Z,50.67
2022-12-18T09:39:13.148Z,50.83
2022-12-18T09:41:51.131Z,51.50
2022-12-18T09:44:28.345Z,50.95
2022-12-18T09:47:13.049Z,50.92
2022-12-18T09:49:45.424Z,51.58
2022-12-18T09:52:22.466Z,51.10
2022-12-18T09:54:57.139Z,51.17
2022-12-18T09:57:27.686Z,51.05
2022-12-18T10:00:01.392Z,51.67
2022-12-18T10:02:33.505Z,52.30
2022-12-18T10:05:10.032Z,51.17
2022-12-18T10:07:52.467Z,52.00
2022-12-18T10:10:40.249Z,50.92
2022-12-18T10:13:24.604Z,51.17
2022-12-18T10:16:05.882Z,51.97
2022-12-18T10:19:12.358Z,51.25
2022-12-18T10:21:48.107Z,50.95
2022-12-18T10:24:26.579Z,51.28
2022-12-18T10:26:59.252Z,50.55
2022-12-18T10:29:29.324Z,51.85
2022-12-18T10:31:57.742Z,51.65
2022-12-18T10:34:26.778Z,50.90
2022-12-18T10:36:55.241Z,51.35
2022-12-18T10:39:27.193Z,52.25
2022-12-18T10:42:16.690Z,51.17
2022-12-18T10:44:46.574Z,51.90
2022-12-18T10:47:20.443Z,50.78
2022-12-18T10:49:52.804Z,51.60
2022-12-18T10:52:24.558Z,50.75
2022-12-18T10:54:59.254Z,50.20
2022-12-18T10:57:36.726Z,51.15
2022-12-18T11:00:26.926Z,52.53
2022-12-18T11:02:56.774Z,53.00
2022-12-18T11:05:30.037Z,52.17
2022-12-18T11:08:00.254Z,52.60
2022-12-18T11:10:33.815Z,53.47
2022-12-18T11:13:14.768Z,53.20
2022-12-18T11:15:45.041Z,52.78
2022-12-18T11:18:22.301Z,52.72
2022-12-18T11:20:58.633Z,53.63
2022-12-18T11:23:29.122Z,53.05
2022-12-18T11:26:01.053Z,53.20
2022-12-18T11:28:42.464Z,52.67
2022-12-18T11:31:33.783Z,54.13
2022-12-18T11:36:57.514Z,55.15
2022-12-18T11:39:34.126Z,53.40
2022-12-18T11:42:12.651Z,52.65
2022-12-18T11:44:49.211Z,53.38
2022-12-18T11:47:30.798Z,53.83
2022-12-18T11:50:04.066Z,52.53
2022-12-18T11:52:38.102Z,52.47
2022-12-18T11:55:16.209Z,52.67
2022-12-18T11:57:57.666Z,54.38
2022-12-18T12:00:26.485Z,53.42
2022-12-18T12:03:41.326Z,52.83
2022-12-18T12:06:19.084Z,51.97
2022-12-18T12:09:05.011Z,52.57
2022-12-18T12:11:48.469Z,52.67
2022-12-18T12:14:38.587Z,51.95
2022-12-18T12:17:16.179Z,52.80
2022-12-18T12:19:55.479Z,52.20
2022-12-18T12:22:30.263Z,53.30
2022-12-18T12:25:16.063Z,52.42
2022-12-18T12:27:55.248Z,52.30
2022-12-18T12:30:29.933Z,53.25
2022-12-18T12:33:19.552Z,52.70
2022-12-18T12:36:02.731Z,52.90
2022-12-18T12:38:37.300Z,51.30
2022-12-18T12:41:30.796Z,52.07
2022-12-18T12:44:03.041Z,51.97
2022-12-18T12:46:34.851Z,52.47
2022-12-18T12:49:07.270Z,52.80
2022-12-18T12:51:41.249Z,52.05
2022-12-18T12:54:23.026Z,52.83
2022-12-18T12:57:01.801Z,52.78
2022-12-18T12:59:39.618Z,53.42
2022-12-18T13:02:19.393Z,52.97
2022-12-18T13:04:55.499Z,52.10
2022-12-18T13:07:31.633Z,52.58
2022-12-18T13:10:27.932Z,51.65
2022-12-18T13:12:58.216Z,53.58
2022-12-18T13:15:33.795Z,53.65
2022-12-18T13:18:19.143Z,52.42
2022-12-18T13:20:55.148Z,53.42
2022-12-18T13:23:37.669Z,52.90
2022-12-18T13:26:35.241Z,52.17
2022-12-18T13:29:05.984Z,52.33
2022-12-18T13:32:23.674Z,52.40
2022-12-18T13:35:42.988Z,52.05
2022-12-18T13:38:25.150Z,52.08
2022-12-18T13:41:00.000Z,51.38
2022-12-18T13:43:39.762Z,52.50
2022-12-18T13:46:24.191Z,51.95
2022-12-18T13:49:00.866Z,52.00
2022-12-18T13:51:32.027Z,51.50
2022-12-18T13:54:03.872Z,51.67
2022-12-18T13:56:35.629Z,52.65
2022-12-18T13:59:24.865Z,52.28
2022-12-18T14:01:57.210Z,52.65
2022-12-18T14:04:29.729Z,54.37
2022-12-18T14:07:03.839Z,53.20
2022-12-18T14:09:37.204Z,51.85
2022-12-18T14:12:34.422Z,52.40
2022-12-18T14:15:03.199Z,52.25
2022-12-18T14:17:33.620Z,53.13
2022-12-18T14:20:03.346Z,52.83
2022-12-18T14:22:32.850Z,51.45
2022-12-18T14:25:18.076Z,53.40
2022-12-18T14:27:50.673Z,52.97
2022-12-18T14:30:32.132Z,51.90
2022-12-18T14:33:11.217Z,51.97
2022-12-18T14:35:42.484Z,52.75
2022-12-18T14:38:24.851Z,51.72
2022-12-18T14:41:03.598Z,51.40
2022-12-18T14:43:37.031Z,51.90
2022-12-18T14:46:07.623Z,51.38
2022-12-18T14:48:40.270Z,51.47
2022-12-18T14:51:18.560Z,52.03
2022-12-18T14:53:54.433Z,51.17
2022-12-18T14:56:26.394Z,51.20
2022-12-18T14:58:58.542Z,52.63
2022-12-18T15:01:31.872Z,51.72
2022-12-18T15:04:02.856Z,51.55
2022-12-18T15:06:35.636Z,51.97
2022-12-18T15:09:07.709Z,50.80
2022-12-18T15:11:48.576Z,51.50
2022-12-18T15:14:43.638Z,51.88
2022-12-18T15:17:20.751Z,52.33
2022-12-18T15:19:51.193Z,51.63
2022-12-18T15:22:29.759Z,52.33
2022-12-18T15:25:00.194Z,52.33
2022-12-18T15:27:32.928Z,53.05
2022-12-18T15:30:24.140Z,52.53
2022-12-18T15:32:53.814Z,51.70
2022-12-18T15:35:25.405Z,52.03
2022-12-18T15:37:54.601Z,51.70
2022-12-18T15:40:25.217Z,50.97
2022-12-18T15:43:28.452Z,52.63
2022-12-18T15:45:58.419Z,51.67
2022-12-18T15:48:26.964Z,51.73
2022-12-18T15:50:59.438Z,52.07
2022-12-18T15:53:32.335Z,50.97
2022-12-18T15:56:15.125Z,50.88
2022-12-18T15:58:43.549Z,50.75
2022-12-18T16:01:13.900Z,51.50
2022-12-18T16:03:42.743Z,51.42
2022-12-18T16:06:12.489Z,50.80
2022-12-18T16:08:40.903Z,51.17
2022-12-18T16:11:38.966Z,50.88
2022-12-18T16:14:17.630Z,51.17
2022-12-18T16:16:48.794Z,51.22
2022-12-18T16:19:17.639Z,51.40
2022-12-18T16:21:46.471Z,50.95
2022-12-18T16:24:18.516Z,53.10
2022-12-18T16:26:47.321Z,55.03
2022-12-18T16:29:15.778Z,52.67
2022-12-18T16:31:44.196Z,51.20
2022-12-18T16:34:23.616Z,52.78
2022-12-18T16:36:58.972Z,52.25
2022-12-18T16:39:31.866Z,50.75
2022-12-18T16:42:00.566Z,50.20
2022-12-18T16:44:31.105Z,50.35
2022-12-18T16:47:02.835Z,51.35
2022-12-18T16:49:33.463Z,51.58
2022-12-18T16:52:02.031Z,52.20
2022-12-18T16:54:31.186Z,51.83
2022-12-18T16:57:00.753Z,51.38
2022-12-18T16:59:29.288Z,51.58
2022-12-18T17:01:58.802Z,50.72
2022-12-18T17:04:27.327Z,51.47
2022-12-18T17:06:57.218Z,51.47
2022-12-18T17:09:26.291Z,52.37
2022-12-18T17:11:55.591Z,52.30
2022-12-18T17:14:26.153Z,52.08
2022-12-18T17:17:19.848Z,51.75
2022-12-18T17:19:43.782Z,52.85
2022-12-18T17:22:13.655Z,51.03
2022-12-18T17:24:42.136Z,52.13
2022-12-18T17:27:10.577Z,51.00
2022-12-18T17:29:43.961Z,51.73
2022-12-18T17:32:15.571Z,51.17
2022-12-18T17:34:44.016Z,51.72
2022-12-18T17:37:14.110Z,54.25
2022-12-18T17:39:43.154Z,51.83
2022-12-18T17:42:14.812Z,51.72
2022-12-18T17:44:44.769Z,53.95
2022-12-18T17:47:13.487Z,52.78
2022-12-18T17:49:42.128Z,51.67
2022-12-18T17:52:10.954Z,51.67
2022-12-18T17:54:42.271Z,52.15
2022-12-18T17:57:11.552Z,51.95
2022-12-18T17:59:40.161Z,52.33
2022-12-18T18:02:11.935Z,52.75
2022-12-18T18:04:40.972Z,52.47
2022-12-18T18:07:09.498Z,51.07
2022-12-18T18:09:38.029Z,52.93
2022-12-18T18:12:24.766Z,51.30
2022-12-18T18:14:53.284Z,52.53
2022-12-18T18:17:22.331Z,52.17
2022-12-18T18:19:50.751Z,52.60
2022-12-18T18:22:20.136Z,51.17
2022-12-18T18:24:48.742Z,52.03
2022-12-18T18:27:18.632Z,51.70
2022-12-18T18:29:47.828Z,51.10
2022-12-18T18:32:16.341Z,50.60
2022-12-18T18:34:45.094Z,52.15
2022-12-18T18:37:13.680Z,51.53
2022-12-18T18:39:42.387Z,51.20
2022-12-18T18:42:10.983Z,53.47
2022-12-18T18:44:45.756Z,51.92
2022-12-18T18:47:18.540Z,52.42
2022-12-18T18:49:47.041Z,53.58
2022-12-18T18:52:15.563Z,51.72
2022-12-18T18:55:03.539Z,52.80
2022-12-18T18:57:32.687Z,51.35
2022-12-18T19:00:02.707Z,51.38
2022-12-18T19:02:31.361Z,51.70
2022-12-18T19:04:59.932Z,51.88
2022-12-18T19:07:30.946Z,51.05
2022-12-18T19:10:04.399Z,53.70
2022-12-18T19:12:52.107Z,52.25
2022-12-18T19:15:22.065Z,51.95
2022-12-18T19:17:50.754Z,51.97
2022-12-18T19:20:19.490Z,52.00
2022-12-18T19:22:55.200Z,52.92
2022-12-18T19:25:38.380Z,54.20
2022-12-18T19:28:22.185Z,51.28
2022-12-18T19:30:57.880Z,54.25
2022-12-18T19:33:45.184Z,51.92
2022-12-18T19:36:19.372Z,52.67
2022-12-18T19:38:48.789Z,52.17
2022-12-18T19:41:18.849Z,52.05
2022-12-18T19:43:48.327Z,53.10
2022-12-18T19:46:20.573Z,51.80
2022-12-18T19:48:50.106Z,52.08
2022-12-18T19:51:21.262Z,52.23
2022-12-18T19:53:53.690Z,51.90
2022-12-18T19:56:29.265Z,52.53
2022-12-18T19:58:57.811Z,52.03
2022-12-18T20:01:29.639Z,52.23
2022-12-18T20:03:59.069Z,50.72
2022-12-18T20:06:30.911Z,51.25
2022-12-18T20:09:01.148Z,52.45
2022-12-18T20:11:30.604Z,52.00
2022-12-18T20:14:03.530Z,52.55
2022-12-18T20:16:33.688Z,51.97
2022-12-18T20:19:02.183Z,51.13
2022-12-18T20:21:31.223Z,50.67
2022-12-18T20:24:00.245Z,51.28
2022-12-18T20:26:29.440Z,52.20
2022-12-18T20:28:58.155Z,51.42
2022-12-18T20:31:26.614Z,52.70
2022-12-18T20:33:59.714Z,52.35
2022-12-18T20:36:30.707Z,51.80
2022-12-18T20:39:01.701Z,52.60
2022-12-18T20:41:37.323Z,52.08
2022-12-18T20:44:21.600Z,52.65
2022-12-18T20:46:54.512Z,52.55
2022-12-18T20:49:25.627Z,53.00
2022-12-18T20:51:56.216Z,54.28
2022-12-18T20:54:27.490Z,53.28
2022-12-18T20:56:56.267Z,52.72
2022-12-18T20:59:25.687Z,52.50
2022-12-18T21:01:54.567Z,53.67
2022-12-18T21:04:25.231Z,52.63
2022-12-18T21:07:00.730Z,52.50
2022-12-18T21:09:35.939Z,53.60
2022-12-18T21:12:25.362Z,53.70
2022-12-18T21:14:53.895Z,53.08
2022-12-18T21:17:22.268Z,56.08
2022-12-18T21:19:52.115Z,54.10
2022-12-18T21:22:20.808Z,54.80
2022-12-18T21:24:49.332Z,52.80
2022-12-18T21:27:18.075Z,53.47
2022-12-18T21:29:47.147Z,54.35
2022-12-18T21:32:15.914Z,53.95
2022-12-18T21:34:48.011Z,54.53
2022-12-18T21:37:18.231Z,52.42
2022-12-18T21:39:48.411Z,54.53
2022-12-18T21:42:36.440Z,53.80
2022-12-18T21:45:05.340Z,54.80
2022-12-18T21:47:33.781Z,53.38
2022-12-18T21:50:02.184Z,52.92
2022-12-18T21:52:32.902Z,53.05
2022-12-18T21:55:08.405Z,54.15
2022-12-18T21:57:39.263Z,53.90
2022-12-18T22:00:18.628Z,52.55
2022-12-18T22:03:10.451Z,52.28
2022-12-18T22:05:37.154Z,52.40
2022-12-18T22:08:07.851Z,53.00
2022-12-18T22:10:37.414Z,53.90
2022-12-18T22:13:06.883Z,53.55
2022-12-18T22:15:35.361Z,52.63
2022-12-18T22:18:03.803Z,52.75
2022-12-18T22:20:32.509Z,51.55
2022-12-18T22:23:03.913Z,53.13
2022-12-18T22:25:39.959Z,52.22
2022-12-18T22:28:26.072Z,52.08
2022-12-18T22:30:57.748Z,52.20
2022-12-18T22:33:29.260Z,52.77
2022-12-18T22:35:57.709Z,52.13
2022-12-18T22:38:27.131Z,51.35
2022-12-18T22:40:57.775Z,52.53
2022-12-18T22:43:26.379Z,51.85
2022-12-18T22:45:55.372Z,53.03
2022-12-18T22:48:24.092Z,53.58
2022-12-18T22:50:53.060Z,52.70
2022-12-18T22:53:27.842Z,51.55
2022-12-18T22:56:03.438Z,51.53
2022-12-18T22:58:31.856Z,50.90
2022-12-18T23:01:00.268Z,50.20
2022-12-18T23:03:28.845Z,51.45
2022-12-18T23:06:05.803Z,50.60
2022-12-18T23:08:34.705Z,50.70
2022-12-18T23:11:05.722Z,50.60
2022-12-18T23:13:35.578Z,50.40
2022-12-18T23:16:07.955Z,51.75
2022-12-18T23:18:37.387Z,51.92
2022-12-18T23:21:07.245Z,52.20
2022-12-18T23:23:38.247Z,51.63
2022-12-18T23:26:12.705Z,52.80
2022-12-18T23:28:41.955Z,52.63
2022-12-18T23:31:15.468Z,51.78
2022-12-18T23:33:46.143Z,51.50
2022-12-18T23:36:15.686Z,50.70
2022-12-18T23:38:44.645Z,51.70
2022-12-18T23:41:17.539Z,52.05
2022-12-18T23:43:45.915Z,51.50
2022-12-18T23:46:20.625Z,51.03
2022-12-18T23:48:49.916Z,51.00
2022-12-18T23:51:20.588Z,51.17
2022-12-18T23:53:49.078Z,52.15
2022-12-18T23:56:18.861Z,51.78
2022-12-18T23:58:49.511Z,51.67
